sensor_id;sensor_type;location;lat;lon;timestamp;pressure;altitude;pressure_sealevel;temperature;humidity
71559;BME280;59382;43.852;25.952;2024-01-06T00:01:45;101017.88;;;10.59;57.87
71559;BME280;59382;43.852;25.952;2024-01-06T00:04:11;101009.97;;;10.57;58.09
71559;BME280;59382;43.852;25.952;2024-01-06T00:06:36;101010.19;;;10.56;58.44
71559;BME280;59382;43.852;25.952;2024-01-06T00:09:02;100994.97;;;10.42;58.43
71559;BME280;59382;43.852;25.952;2024-01-06T00:11:28;100984.19;;;10.42;58.06
71559;BME280;59382;43.852;25.952;2024-01-06T00:13:53;100974.25;;;10.42;58.04
71559;BME280;59382;43.852;25.952;2024-01-06T00:16:20;100983.38;;;10.48;58.07
71559;BME280;59382;43.852;25.952;2024-01-06T00:18:46;100968.44;;;10.45;57.96
71559;BME280;59382;43.852;25.952;2024-01-06T00:21:12;100965.34;;;10.55;58.09
71559;BME280;59382;43.852;25.952;2024-01-06T00:23:39;100953.50;;;10.43;58.20
71559;BME280;59382;43.852;25.952;2024-01-06T00:26:05;100973.84;;;10.52;57.72
71559;BME280;59382;43.852;25.952;2024-01-06T00:28:30;100958.47;;;10.39;57.80
71559;BME280;59382;43.852;25.952;2024-01-06T00:30:56;100986.50;;;10.51;58.04
71559;BME280;59382;43.852;25.952;2024-01-06T00:33:23;100975.91;;;10.50;58.09
71559;BME280;59382;43.852;25.952;2024-01-06T00:35:48;100977.38;;;10.52;57.94
71559;BME280;59382;43.852;25.952;2024-01-06T00:38:14;100989.00;;;10.53;58.06
71559;BME280;59382;43.852;25.952;2024-01-06T00:40:39;100995.03;;;10.55;58.04
71559;BME280;59382;43.852;25.952;2024-01-06T00:43:05;100982.13;;;10.44;57.95
71559;BME280;59382;43.852;25.952;2024-01-06T00:45:30;101012.88;;;10.56;57.94
71559;BME280;59382;43.852;25.952;2024-01-06T00:47:56;101000.00;;;10.51;57.49
71559;BME280;59382;43.852;25.952;2024-01-06T00:50:22;101012.91;;;10.62;57.81
71559;BME280;59382;43.852;25.952;2024-01-06T00:52:48;101002.50;;;10.53;57.66
71559;BME280;59382;43.852;25.952;2024-01-06T00:55:20;100997.06;;;10.46;57.67
71559;BME280;59382;43.852;25.952;2024-01-06T00:57:46;100999.56;;;10.41;57.58
71559;BME280;59382;43.852;25.952;2024-01-06T01:00:14;101018.47;;;10.54;58.16
71559;BME280;59382;43.852;25.952;2024-01-06T01:02:40;101016.63;;;10.55;58.09
71559;BME280;59382;43.852;25.952;2024-01-06T01:05:06;101004.97;;;10.48;58.01
71559;BME280;59382;43.852;25.952;2024-01-06T01:07:35;101019.31;;;10.55;58.00
71559;BME280;59382;43.852;25.952;2024-01-06T01:10:00;101008.94;;;10.52;57.66
71559;BME280;59382;43.852;25.952;2024-01-06T01:12:26;101018.31;;;10.62;57.75
71559;BME280;59382;43.852;25.952;2024-01-06T01:14:53;101024.50;;;10.63;57.92
71559;BME280;59382;43.852;25.952;2024-01-06T01:17:19;101017.06;;;10.65;57.79
71559;BME280;59382;43.852;25.952;2024-01-06T01:19:45;101014.59;;;10.70;57.51
71559;BME280;59382;43.852;25.952;2024-01-06T01:22:11;101003.34;;;10.60;57.08
71559;BME280;59382;43.852;25.952;2024-01-06T01:24:37;100996.31;;;10.65;57.43
71559;BME280;59382;43.852;25.952;2024-01-06T01:27:04;100995.47;;;10.65;57.22
71559;BME280;59382;43.852;25.952;2024-01-06T01:29:29;100993.78;;;10.57;57.12
71559;BME280;59382;43.852;25.952;2024-01-06T01:31:55;100998.34;;;10.57;56.58
71559;BME280;59382;43.852;25.952;2024-01-06T01:34:20;100991.69;;;10.53;56.83
71559;BME280;59382;43.852;25.952;2024-01-06T01:36:46;100984.66;;;10.52;57.13
71559;BME280;59382;43.852;25.952;2024-01-06T01:39:11;100985.66;;;10.51;56.68
71559;BME280;59382;43.852;25.952;2024-01-06T01:41:37;100972.59;;;10.48;56.81
71559;BME280;59382;43.852;25.952;2024-01-06T01:44:02;100962.84;;;10.47;57.08
71559;BME280;59382;43.852;25.952;2024-01-06T01:46:29;100934.16;;;10.33;56.80
71559;BME280;59382;43.852;25.952;2024-01-06T01:48:55;100953.28;;;10.51;56.98
71559;BME280;59382;43.852;25.952;2024-01-06T01:51:26;100943.13;;;10.40;56.30
71559;BME280;59382;43.852;25.952;2024-01-06T01:53:53;100960.56;;;10.50;56.68
71559;BME280;59382;43.852;25.952;2024-01-06T01:56:19;100965.13;;;10.50;56.39
71559;BME280;59382;43.852;25.952;2024-01-06T01:58:46;100963.47;;;10.49;56.49
71559;BME280;59382;43.852;25.952;2024-01-06T02:01:12;100943.13;;;10.40;56.93
71559;BME280;59382;43.852;25.952;2024-01-06T02:03:41;100948.94;;;10.50;56.66
71559;BME280;59382;43.852;25.952;2024-01-06T02:06:06;100938.31;;;10.42;56.42
71559;BME280;59382;43.852;25.952;2024-01-06T02:08:32;100958.06;;;10.49;56.31
71559;BME280;59382;43.852;25.952;2024-01-06T02:10:57;100946.88;;;10.52;56.54
71559;BME280;59382;43.852;25.952;2024-01-06T02:13:23;100926.94;;;10.53;56.14
71559;BME280;59382;43.852;25.952;2024-01-06T02:15:49;100933.56;;;10.44;56.51
71559;BME280;59382;43.852;25.952;2024-01-06T02:18:15;100946.88;;;10.52;56.19
71559;BME280;59382;43.852;25.952;2024-01-06T02:20:43;100928.00;;;10.52;56.37
71559;BME280;59382;43.852;25.952;2024-01-06T02:23:09;100922.78;;;10.57;56.27
71559;BME280;59382;43.852;25.952;2024-01-06T02:25:35;100906.81;;;10.49;56.18
71559;BME280;59382;43.852;25.952;2024-01-06T02:28:01;100938.16;;;10.56;56.42
71559;BME280;59382;43.852;25.952;2024-01-06T02:30:26;100933.56;;;10.57;56.41
71559;BME280;59382;43.852;25.952;2024-01-06T02:32:52;100913.69;;;10.58;56.23
71559;BME280;59382;43.852;25.952;2024-01-06T02:35:20;100924.06;;;10.61;56.25
71559;BME280;59382;43.852;25.952;2024-01-06T02:37:46;100910.34;;;10.62;56.02
71559;BME280;59382;43.852;25.952;2024-01-06T02:40:13;100912.84;;;10.64;56.27
71559;BME280;59382;43.852;25.952;2024-01-06T02:42:38;100909.53;;;10.68;56.24
71559;BME280;59382;43.852;25.952;2024-01-06T02:45:04;100878.59;;;10.58;55.95
71559;BME280;59382;43.852;25.952;2024-01-06T02:47:30;100886.69;;;10.58;56.12
71559;BME280;59382;43.852;25.952;2024-01-06T02:49:55;100896.44;;;10.59;56.28
71559;BME280;59382;43.852;25.952;2024-01-06T02:52:20;100884.59;;;10.47;55.92
71559;BME280;59382;43.852;25.952;2024-01-06T02:54:47;100881.69;;;10.42;56.53
71559;BME280;59382;43.852;25.952;2024-01-06T02:57:13;100894.97;;;10.50;56.35
71559;BME280;59382;43.852;25.952;2024-01-06T02:59:39;100898.72;;;10.49;56.46
71559;BME280;59382;43.852;25.952;2024-01-06T03:02:04;100899.97;;;10.53;56.52
71559;BME280;59382;43.852;25.952;2024-01-06T03:04:30;100894.16;;;10.56;56.45
71559;BME280;59382;43.852;25.952;2024-01-06T03:06:55;100881.72;;;10.55;56.20
71559;BME280;59382;43.852;25.952;2024-01-06T03:09:21;100871.53;;;10.57;56.39
71559;BME280;59382;43.852;25.952;2024-01-06T03:11:46;100905.34;;;10.66;56.16
71559;BME280;59382;43.852;25.952;2024-01-06T03:14:12;100896.66;;;10.64;56.11
71559;BME280;59382;43.852;25.952;2024-01-06T03:16:37;100874.22;;;10.57;55.97
71559;BME280;59382;43.852;25.952;2024-01-06T03:19:03;100882.94;;;10.59;55.86
71559;BME280;59382;43.852;25.952;2024-01-06T03:21:28;100885.88;;;10.64;55.88
71559;BME280;59382;43.852;25.952;2024-01-06T03:23:54;100893.75;;;10.65;55.94
71559;BME280;59382;43.852;25.952;2024-01-06T03:26:20;100894.34;;;10.67;55.92
71559;BME280;59382;43.852;25.952;2024-01-06T03:28:49;100885.66;;;10.65;55.68
71559;BME280;59382;43.852;25.952;2024-01-06T03:31:15;100864.25;;;10.51;56.09
71559;BME280;59382;43.852;25.952;2024-01-06T03:33:40;100888.16;;;10.67;55.79
71559;BME280;59382;43.852;25.952;2024-01-06T03:36:06;100880.47;;;10.64;55.92
71559;BME280;59382;43.852;25.952;2024-01-06T03:38:35;100883.38;;;10.62;55.88
71559;BME280;59382;43.852;25.952;2024-01-06T03:41:00;100867.59;;;10.53;55.98
71559;BME280;59382;43.852;25.952;2024-01-06T03:43:26;100868.63;;;10.52;56.13
71559;BME280;59382;43.852;25.952;2024-01-06T03:45:51;100881.50;;;10.50;55.89
71559;BME280;59382;43.852;25.952;2024-01-06T03:48:17;100879.63;;;10.44;56.12
71559;BME280;59382;43.852;25.952;2024-01-06T03:50:42;100881.06;;;10.40;56.13
71559;BME280;59382;43.852;25.952;2024-01-06T03:53:08;100885.41;;;10.41;56.10
71559;BME280;59382;43.852;25.952;2024-01-06T03:55:33;100880.84;;;10.35;55.84
71559;BME280;59382;43.852;25.952;2024-01-06T03:57:59;100887.91;;;10.36;56.17
71559;BME280;59382;43.852;25.952;2024-01-06T04:00:27;100898.69;;;10.36;56.23
71559;BME280;59382;43.852;25.952;2024-01-06T04:02:53;100882.06;;;10.26;56.04
71559;BME280;59382;43.852;25.952;2024-01-06T04:05:18;100887.91;;;10.36;56.16
71559;BME280;59382;43.852;25.952;2024-01-06T04:07:44;100892.03;;;10.32;55.80
71559;BME280;59382;43.852;25.952;2024-01-06T04:10:09;100890.81;;;10.28;56.37
71559;BME280;59382;43.852;25.952;2024-01-06T04:12:35;100875.84;;;10.19;56.18
71559;BME280;59382;43.852;25.952;2024-01-06T04:15:01;100880.84;;;10.22;55.93
71559;BME280;59382;43.852;25.952;2024-01-06T04:17:27;100871.28;;;10.13;56.38
71559;BME280;59382;43.852;25.952;2024-01-06T04:19:53;100891.22;;;10.25;56.19
71559;BME280;59382;43.852;25.952;2024-01-06T04:22:18;100894.56;;;10.27;56.14
71559;BME280;59382;43.852;25.952;2024-01-06T04:24:44;100886.00;;;10.17;56.28
71559;BME280;59382;43.852;25.952;2024-01-06T04:27:09;100891.63;;;10.22;56.41
71559;BME280;59382;43.852;25.952;2024-01-06T04:29:35;100891.63;;;10.22;56.36
71559;BME280;59382;43.852;25.952;2024-01-06T04:32:00;100888.94;;;10.22;56.37
71559;BME280;59382;43.852;25.952;2024-01-06T04:34:26;100889.97;;;10.21;56.34
71559;BME280;59382;43.852;25.952;2024-01-06T04:36:52;100886.22;;;10.09;56.30
71559;BME280;59382;43.852;25.952;2024-01-06T04:39:18;100905.28;;;10.14;56.47
71559;BME280;59382;43.852;25.952;2024-01-06T04:41:43;100888.66;;;10.03;56.26
71559;BME280;59382;43.852;25.952;2024-01-06T04:44:09;100898.38;;;10.04;56.18
71559;BME280;59382;43.852;25.952;2024-01-06T04:46:34;100908.38;;;10.11;56.32
71559;BME280;59382;43.852;25.952;2024-01-06T04:48:59;100889.47;;;9.97;56.39
71559;BME280;59382;43.852;25.952;2024-01-06T04:51:25;100893.59;;;10.00;56.64
71559;BME280;59382;43.852;25.952;2024-01-06T04:53:51;100891.97;;;10.06;56.54
71559;BME280;59382;43.852;25.952;2024-01-06T04:56:16;100889.09;;;10.14;56.39
71559;BME280;59382;43.852;25.952;2024-01-06T04:58:42;100892.47;;;10.29;56.29
71559;BME280;59382;43.852;25.952;2024-01-06T05:01:07;100893.09;;;10.31;55.91
71559;BME280;59382;43.852;25.952;2024-01-06T05:03:33;100897.44;;;10.32;56.29
71559;BME280;59382;43.852;25.952;2024-01-06T05:05:58;100893.69;;;10.33;56.17
71559;BME280;59382;43.852;25.952;2024-01-06T05:08:24;100883.97;;;10.32;56.24
71559;BME280;59382;43.852;25.952;2024-01-06T05:10:52;100880.63;;;10.30;55.91
71559;BME280;59382;43.852;25.952;2024-01-06T05:13:17;100881.25;;;10.32;56.16
71559;BME280;59382;43.852;25.952;2024-01-06T05:15:43;100886.25;;;10.35;56.16
71559;BME280;59382;43.852;25.952;2024-01-06T05:18:09;100876.28;;;10.29;56.03
71559;BME280;59382;43.852;25.952;2024-01-06T05:20:34;100897.25;;;10.40;56.03
71559;BME280;59382;43.852;25.952;2024-01-06T05:23:00;100897.25;;;10.40;56.22
71559;BME280;59382;43.852;25.952;2024-01-06T05:25:25;100901.41;;;10.42;56.09
71559;BME280;59382;43.852;25.952;2024-01-06T05:27:51;100901.41;;;10.42;56.17
71559;BME280;59382;43.852;25.952;2024-01-06T05:30:17;100885.41;;;10.28;56.35
71559;BME280;59382;43.852;25.952;2024-01-06T05:32:43;100903.28;;;10.35;56.24
71559;BME280;59382;43.852;25.952;2024-01-06T05:35:09;100905.94;;;10.29;56.32
71559;BME280;59382;43.852;25.952;2024-01-06T05:37:34;100897.19;;;10.14;56.19
71559;BME280;59382;43.852;25.952;2024-01-06T05:40:00;100906.16;;;10.21;56.45
71559;BME280;59382;43.852;25.952;2024-01-06T05:42:29;100882.88;;;10.07;56.54
71559;BME280;59382;43.852;25.952;2024-01-06T05:44:54;100907.38;;;10.12;56.65
71559;BME280;59382;43.852;25.952;2024-01-06T05:47:20;100882.00;;;9.99;56.41
71559;BME280;59382;43.852;25.952;2024-01-06T05:49:46;100877.41;;;10.00;56.69
71559;BME280;59382;43.852;25.952;2024-01-06T05:52:11;100903.22;;;10.16;56.71
71559;BME280;59382;43.852;25.952;2024-01-06T05:54:40;100900.13;;;10.19;56.75
71559;BME280;59382;43.852;25.952;2024-01-06T05:57:07;100861.84;;;9.95;56.54
71559;BME280;59382;43.852;25.952;2024-01-06T05:59:33;100891.63;;;10.22;56.46
71559;BME280;59382;43.852;25.952;2024-01-06T06:01:59;100899.50;;;10.30;56.36
71559;BME280;59382;43.852;25.952;2024-01-06T06:04:25;100890.59;;;10.36;56.50
71559;BME280;59382;43.852;25.952;2024-01-06T06:06:50;100854.28;;;10.19;56.09
71559;BME280;59382;43.852;25.952;2024-01-06T06:09:16;100886.25;;;10.48;56.55
71559;BME280;59382;43.852;25.952;2024-01-06T06:11:42;100868.81;;;10.44;56.43
71559;BME280;59382;43.852;25.952;2024-01-06T06:14:08;100874.03;;;10.52;55.98
71559;BME280;59382;43.852;25.952;2024-01-06T06:16:34;100866.34;;;10.49;56.19
71559;BME280;59382;43.852;25.952;2024-01-06T06:18:59;100851.81;;;10.50;56.32
71559;BME280;59382;43.852;25.952;2024-01-06T06:21:25;100862.19;;;10.59;56.15
71559;BME280;59382;43.852;25.952;2024-01-06T06:23:51;100860.13;;;10.55;55.80
71559;BME280;59382;43.852;25.952;2024-01-06T06:26:16;100858.66;;;10.52;55.79
71559;BME280;59382;43.852;25.952;2024-01-06T06:28:42;100866.75;;;10.59;56.07
71559;BME280;59382;43.852;25.952;2024-01-06T06:31:07;100846.00;;;10.53;55.96
71559;BME280;59382;43.852;25.952;2024-01-06T06:33:33;100855.13;;;10.65;56.00
71559;BME280;59382;43.852;25.952;2024-01-06T06:35:59;100853.25;;;10.72;56.33
71559;BME280;59382;43.852;25.952;2024-01-06T06:38:27;100838.53;;;10.68;56.08
71559;BME280;59382;43.852;25.952;2024-01-06T06:40:53;100845.97;;;10.79;56.18
71559;BME280;59382;43.852;25.952;2024-01-06T06:43:19;100863.44;;;10.83;55.82
71559;BME280;59382;43.852;25.952;2024-01-06T06:45:44;100865.72;;;10.86;55.79
71559;BME280;59382;43.852;25.952;2024-01-06T06:48:10;100859.69;;;10.84;55.45
71559;BME280;59382;43.852;25.952;2024-01-06T06:50:35;100853.84;;;10.80;56.04
71559;BME280;59382;43.852;25.952;2024-01-06T06:53:01;100862.16;;;10.79;56.17
71559;BME280;59382;43.852;25.952;2024-01-06T06:55:26;100854.72;;;10.68;55.74
71559;BME280;59382;43.852;25.952;2024-01-06T06:57:53;100879.22;;;10.73;55.88
71559;BME280;59382;43.852;25.952;2024-01-06T07:00:19;100885.88;;;10.64;55.98
71559;BME280;59382;43.852;25.952;2024-01-06T07:02:45;100887.50;;;10.65;56.36
71559;BME280;59382;43.852;25.952;2024-01-06T07:05:10;100881.72;;;10.55;56.14
71559;BME280;59382;43.852;25.952;2024-01-06T07:07:36;100886.69;;;10.58;56.58
71559;BME280;59382;43.852;25.952;2024-01-06T07:10:05;100887.53;;;10.52;56.28
71559;BME280;59382;43.852;25.952;2024-01-06T07:12:31;100892.91;;;10.45;57.02
71559;BME280;59382;43.852;25.952;2024-01-06T07:14:57;100890.41;;;10.44;56.93
71559;BME280;59382;43.852;25.952;2024-01-06T07:17:24;100886.25;;;10.48;56.88
71559;BME280;59382;43.852;25.952;2024-01-06T07:19:53;100892.09;;;10.58;56.94
71559;BME280;59382;43.852;25.952;2024-01-06T07:22:19;100869.66;;;10.57;56.83
71559;BME280;59382;43.852;25.952;2024-01-06T07:24:45;100888.34;;;10.72;56.37
71559;BME280;59382;43.852;25.952;2024-01-06T07:27:10;100872.97;;;10.79;56.24
71559;BME280;59382;43.852;25.952;2024-01-06T07:29:36;100857.19;;;10.76;56.45
71559;BME280;59382;43.852;25.952;2024-01-06T07:32:04;100855.13;;;10.84;56.09
71559;BME280;59382;43.852;25.952;2024-01-06T07:34:31;100853.44;;;10.90;56.14
71559;BME280;59382;43.852;25.952;2024-01-06T07:37:02;100862.16;;;10.92;56.14
71559;BME280;59382;43.852;25.952;2024-01-06T07:39:28;100866.53;;;10.93;56.11
71559;BME280;59382;43.852;25.952;2024-01-06T07:41:53;100862.16;;;10.92;56.27
71559;BME280;59382;43.852;25.952;2024-01-06T07:44:19;100855.34;;;10.83;56.34
71559;BME280;59382;43.852;25.952;2024-01-06T07:46:52;100855.31;;;10.89;56.49
71559;BME280;59382;43.852;25.952;2024-01-06T07:49:18;100857.38;;;10.94;56.50
71559;BME280;59382;43.852;25.952;2024-01-06T07:51:45;100865.69;;;10.99;56.04
71559;BME280;59382;43.852;25.952;2024-01-06T07:54:11;100860.91;;;11.01;55.84
71559;BME280;59382;43.852;25.952;2024-01-06T07:56:37;100862.56;;;11.02;56.26
71559;BME280;59382;43.852;25.952;2024-01-06T07:59:03;100861.31;;;11.11;56.13
71559;BME280;59382;43.852;25.952;2024-01-06T08:01:29;100840.13;;;11.08;55.79
71559;BME280;59382;43.852;25.952;2024-01-06T08:03:55;100849.41;;;11.25;55.95
71559;BME280;59382;43.852;25.952;2024-01-06T08:06:20;100852.50;;;11.35;55.79
71559;BME280;59382;43.852;25.952;2024-01-06T08:08:46;100846.69;;;11.38;55.55
71559;BME280;59382;43.852;25.952;2024-01-06T08:11:12;100865.75;;;11.43;55.58
71559;BME280;59382;43.852;25.952;2024-01-06T08:13:40;100874.50;;;11.45;55.40
71559;BME280;59382;43.852;25.952;2024-01-06T08:16:06;100860.19;;;11.31;55.52
71559;BME280;59382;43.852;25.952;2024-01-06T08:18:32;100857.94;;;11.22;55.73
71559;BME280;59382;43.852;25.952;2024-01-06T08:20:57;100855.22;;;11.22;56.01
71559;BME280;59382;43.852;25.952;2024-01-06T08:23:23;100842.19;;;11.19;55.95
71559;BME280;59382;43.852;25.952;2024-01-06T08:25:49;100858.94;;;11.34;55.53
71559;BME280;59382;43.852;25.952;2024-01-06T08:28:14;100846.47;;;11.39;55.74
71559;BME280;59382;43.852;25.952;2024-01-06T08:30:40;100851.22;;;11.44;55.70
71559;BME280;59382;43.852;25.952;2024-01-06T08:33:06;100851.59;;;11.54;55.43
71559;BME280;59382;43.852;25.952;2024-01-06T08:35:31;100833.13;;;11.51;55.40
71559;BME280;59382;43.852;25.952;2024-01-06T08:37:57;100842.88;;;11.52;55.74
71559;BME280;59382;43.852;25.952;2024-01-06T08:40:23;100844.13;;;11.56;55.38
71559;BME280;59382;43.852;25.952;2024-01-06T08:42:48;100840.38;;;11.57;55.34
71559;BME280;59382;43.852;25.952;2024-01-06T08:45:14;100830.59;;;11.56;55.83
71559;BME280;59382;43.852;25.952;2024-01-06T08:47:40;100828.72;;;11.63;55.39
71559;BME280;59382;43.852;25.952;2024-01-06T08:50:06;100833.69;;;11.66;55.48
71559;BME280;59382;43.852;25.952;2024-01-06T08:52:32;100819.97;;;11.61;55.43
71559;BME280;59382;43.852;25.952;2024-01-06T08:54:57;100799.63;;;11.52;55.45
71559;BME280;59382;43.852;25.952;2024-01-06T08:57:23;100814.16;;;11.64;55.64
71559;BME280;59382;43.852;25.952;2024-01-06T08:59:48;100809.97;;;11.68;55.56
71559;BME280;59382;43.852;25.952;2024-01-06T09:02:14;100807.94;;;11.63;55.57
71559;BME280;59382;43.852;25.952;2024-01-06T09:04:39;100816.22;;;11.68;55.50
71559;BME280;59382;43.852;25.952;2024-01-06T09:07:05;100798.56;;;11.66;55.29
71559;BME280;59382;43.852;25.952;2024-01-06T09:09:30;100810.44;;;11.65;55.39
71559;BME280;59382;43.852;25.952;2024-01-06T09:11:56;100790.66;;;11.58;55.18
71559;BME280;59382;43.852;25.952;2024-01-06T09:14:21;100800.00;;;11.68;55.20
71559;BME280;59382;43.852;25.952;2024-01-06T09:16:47;100782.97;;;11.61;55.46
71559;BME280;59382;43.852;25.952;2024-01-06T09:19:13;100795.44;;;11.69;55.27
71559;BME280;59382;43.852;25.952;2024-01-06T09:21:39;100767.63;;;11.62;55.42
71559;BME280;59382;43.852;25.952;2024-01-06T09:24:05;100778.78;;;11.72;55.38
71559;BME280;59382;43.852;25.952;2024-01-06T09:26:32;100772.59;;;11.65;55.05
71559;BME280;59382;43.852;25.952;2024-01-06T09:29:01;100776.94;;;11.66;55.24
71559;BME280;59382;43.852;25.952;2024-01-06T09:31:28;100772.59;;;11.65;55.09
71559;BME280;59382;43.852;25.952;2024-01-06T09:33:54;100753.47;;;11.53;55.39
71559;BME280;59382;43.852;25.952;2024-01-06T09:36:23;100741.25;;;11.44;55.34
71559;BME280;59382;43.852;25.952;2024-01-06T09:38:48;100751.63;;;11.54;55.81
71559;BME280;59382;43.852;25.952;2024-01-06T09:41:14;100751.00;;;11.52;55.21
71559;BME280;59382;43.852;25.952;2024-01-06T09:43:39;100738.94;;;11.54;55.43
71559;BME280;59382;43.852;25.952;2024-01-06T09:46:31;100754.94;;;11.56;55.00
71559;BME280;59382;43.852;25.952;2024-01-06T09:48:57;100738.97;;;11.48;55.11
71559;BME280;59382;43.852;25.952;2024-01-06T09:51:24;100736.44;;;11.53;54.81
71559;BME280;59382;43.852;25.952;2024-01-06T09:56:20;100714.66;;;11.48;54.70
71559;BME280;59382;43.852;25.952;2024-01-06T09:58:46;100712.28;;;11.58;55.13
71559;BME280;59382;43.852;25.952;2024-01-06T10:01:13;100715.84;;;11.65;55.17
71559;BME280;59382;43.852;25.952;2024-01-06T10:03:40;100704.41;;;11.63;55.13
71559;BME280;59382;43.852;25.952;2024-01-06T10:06:07;100719.25;;;11.78;55.10
71559;BME280;59382;43.852;25.952;2024-01-06T10:08:35;100688.91;;;11.76;54.47
71559;BME280;59382;43.852;25.952;2024-01-06T10:11:00;100683.28;;;11.78;54.75
71559;BME280;59382;43.852;25.952;2024-01-06T10:13:26;100703.16;;;11.90;54.37
71559;BME280;59382;43.852;25.952;2024-01-06T10:15:54;100681.03;;;11.75;54.47
71559;BME280;59382;43.852;25.952;2024-01-06T10:18:20;100695.53;;;11.80;54.70
71559;BME280;59382;43.852;25.952;2024-01-06T10:20:47;100670.91;;;11.64;54.10
71559;BME280;59382;43.852;25.952;2024-01-06T10:23:12;100678.56;;;11.67;54.54
71559;BME280;59382;43.852;25.952;2024-01-06T10:25:38;100681.28;;;11.67;54.35
71559;BME280;59382;43.852;25.952;2024-01-06T10:28:06;100678.78;;;11.65;54.78
71559;BME280;59382;43.852;25.952;2024-01-06T10:30:32;100679.34;;;11.74;54.98
71559;BME280;59382;43.852;25.952;2024-01-06T10:32:57;100664.16;;;11.79;54.88
71559;BME280;59382;43.852;25.952;2024-01-06T10:35:25;100670.84;;;11.95;54.90
71559;BME280;59382;43.852;25.952;2024-01-06T10:37:51;100647.59;;;11.94;54.64
71559;BME280;59382;43.852;25.952;2024-01-06T10:40:17;100630.03;;;12.03;54.87
71559;BME280;59382;43.852;25.952;2024-01-06T10:42:43;100643.19;;;12.18;54.42
71559;BME280;59382;43.852;25.952;2024-01-06T10:45:11;100649.00;;;12.21;54.12
71559;BME280;59382;43.852;25.952;2024-01-06T10:47:38;100635.75;;;12.13;54.13
71559;BME280;59382;43.852;25.952;2024-01-06T10:50:04;100624.47;;;12.16;54.54
71559;BME280;59382;43.852;25.952;2024-01-06T10:52:31;100615.38;;;12.11;54.42
71559;BME280;59382;43.852;25.952;2024-01-06T10:54:58;100616.38;;;12.16;54.16
71559;BME280;59382;43.852;25.952;2024-01-06T10:57:24;100630.63;;;12.23;54.50
71559;BME280;59382;43.852;25.952;2024-01-06T10:59:51;100601.03;;;12.28;54.44
71559;BME280;59382;43.852;25.952;2024-01-06T11:02:17;100608.94;;;12.48;54.25
71559;BME280;59382;43.852;25.952;2024-01-06T11:04:47;100623.22;;;12.55;54.00
71559;BME280;59382;43.852;25.952;2024-01-06T11:07:18;100580.31;;;12.40;54.26
71559;BME280;59382;43.852;25.952;2024-01-06T11:10:06;100598.19;;;12.59;54.41
71559;BME280;59382;43.852;25.952;2024-01-06T11:12:33;100589.94;;;12.54;54.28
71559;BME280;59382;43.852;25.952;2024-01-06T11:14:59;100603.13;;;12.62;54.36
71559;BME280;59382;43.852;25.952;2024-01-06T11:20:25;100607.34;;;12.76;54.35
71559;BME280;59382;43.852;25.952;2024-01-06T11:22:52;100602.19;;;12.86;54.07
71559;BME280;59382;43.852;25.952;2024-01-06T11:25:18;100583.25;;;12.86;54.09
71559;BME280;59382;43.852;25.952;2024-01-06T11:27:46;100587.75;;;12.92;54.03
71559;BME280;59382;43.852;25.952;2024-01-06T11:32:45;100611.72;;;13.07;53.96
71559;BME280;59382;43.852;25.952;2024-01-06T11:35:13;100585.94;;;13.04;54.01
71559;BME280;59382;43.852;25.952;2024-01-06T11:42:33;100584.09;;;13.16;54.38
71559;BME280;59382;43.852;25.952;2024-01-06T11:45:04;100583.34;;;13.09;54.52
71559;BME280;59382;43.852;25.952;2024-01-06T11:47:36;100590.94;;;13.19;54.33
71559;BME280;59382;43.852;25.952;2024-01-06T11:50:02;100584.09;;;13.16;54.83
71559;BME280;59382;43.852;25.952;2024-01-06T11:52:32;100591.53;;;13.21;54.74
71559;BME280;59382;43.852;25.952;2024-01-06T11:54:58;100576.09;;;13.21;54.72
71559;BME280;59382;43.852;25.952;2024-01-06T11:57:25;100567.16;;;13.21;54.80
71559;BME280;59382;43.852;25.952;2024-01-06T11:59:52;100572.59;;;13.32;54.79
71559;BME280;59382;43.852;25.952;2024-01-06T12:02:18;100571.28;;;13.35;54.70
71559;BME280;59382;43.852;25.952;2024-01-06T12:04:52;100580.72;;;13.44;54.65
71559;BME280;59382;43.852;25.952;2024-01-06T12:07:19;100582.75;;;13.48;54.75
71559;BME280;59382;43.852;25.952;2024-01-06T12:09:46;100553.63;;;13.44;54.56
71559;BME280;59382;43.852;25.952;2024-01-06T12:12:16;100547.28;;;13.50;54.57
71559;BME280;59382;43.852;25.952;2024-01-06T12:14:41;100571.69;;;13.61;54.34
71559;BME280;59382;43.852;25.952;2024-01-06T12:17:08;100563.44;;;13.56;54.46
71559;BME280;59382;43.852;25.952;2024-01-06T12:19:33;100554.84;;;13.59;53.90
71559;BME280;59382;43.852;25.952;2024-01-06T12:21:59;100562.97;;;13.59;54.20
71559;BME280;59382;43.852;25.952;2024-01-06T12:24:27;100570.41;;;13.64;54.05
71559;BME280;59382;43.852;25.952;2024-01-06T12:26:55;100570.88;;;13.61;54.21
71559;BME280;59382;43.852;25.952;2024-01-06T12:29:22;100575.47;;;13.60;54.40
71559;BME280;59382;43.852;25.952;2024-01-06T12:31:47;100584.19;;;13.62;54.35
71559;BME280;59382;43.852;25.952;2024-01-06T12:34:13;100576.63;;;13.64;54.61
71559;BME280;59382;43.852;25.952;2024-01-06T12:36:39;100573.34;;;13.62;54.45
71559;BME280;59382;43.852;25.952;2024-01-06T12:39:10;100565.78;;;13.64;54.11
71559;BME280;59382;43.852;25.952;2024-01-06T12:41:41;100572.28;;;13.63;54.10
71559;BME280;59382;43.852;25.952;2024-01-06T12:44:08;100581.13;;;13.70;54.15
71559;BME280;59382;43.852;25.952;2024-01-06T12:46:34;100583.34;;;13.73;53.95
71559;BME280;59382;43.852;25.952;2024-01-06T12:48:59;100582.66;;;13.66;54.10